createdAt,value
2023-01-10T00:00:00.470Z,3.6
2023-01-10T00:05:00.521Z,3.6
2023-01-10T00:10:00.436Z,3.7
2023-01-10T00:15:00.456Z,3.8
2023-01-10T00:20:00.458Z,3.8
2023-01-10T00:25:00.466Z,3.8
2023-01-10T00:30:00.482Z,3.9
2023-01-10T00:35:00.439Z,3.9
2023-01-10T00:40:00.460Z,3.9
2023-01-10T00:45:00.471Z,4.0
2023-01-10T00:50:00.459Z,4.0
2023-01-10T00:55:00.459Z,3.9
2023-01-10T01:00:00.464Z,3.9
2023-01-10T01:05:00.432Z,3.9
2023-01-10T01:10:00.469Z,3.9
2023-01-10T01:15:00.462Z,3.7
2023-01-10T01:20:00.451Z,3.7
2023-01-10T01:25:00.464Z,3.8
2023-01-10T01:30:00.467Z,3.7
2023-01-10T01:35:00.459Z,3.7
2023-01-10T01:40:00.475Z,3.8
2023-01-10T01:45:00.472Z,3.9
2023-01-10T01:50:00.470Z,3.9
2023-01-10T01:55:00.472Z,3.9
2023-01-10T02:00:00.482Z,3.9
2023-01-10T02:05:00.471Z,3.9
2023-01-10T02:10:00.458Z,3.9
2023-01-10T02:15:00.473Z,3.9
2023-01-10T02:20:00.478Z,3.9
2023-01-10T02:25:00.462Z,4.0
2023-01-10T02:30:00.472Z,4.0
2023-01-10T02:35:00.467Z,4.0
2023-01-10T02:40:00.462Z,4.0
2023-01-10T02:45:00.469Z,4.2
2023-01-10T02:50:00.464Z,4.3
2023-01-10T02:55:00.447Z,4.2
2023-01-10T03:00:00.481Z,4.2
2023-01-10T03:05:00.541Z,4.2
2023-01-10T03:10:00.475Z,4.2
2023-01-10T03:15:00.666Z,4.2
2023-01-10T03:20:00.471Z,4.3
2023-01-10T03:25:00.572Z,4.3
2023-01-10T03:30:00.438Z,4.4
2023-01-10T03:35:00.461Z,4.2
2023-01-10T03:40:00.472Z,4.5
2023-01-10T03:45:00.444Z,4.4
2023-01-10T03:50:00.464Z,4.5
2023-01-10T03:55:00.462Z,4.5
2023-01-10T04:00:00.467Z,4.5
2023-01-10T04:05:00.485Z,4.7
2023-01-10T04:10:00.492Z,4.5
2023-01-10T04:15:00.478Z,4.7
2023-01-10T04:20:00.491Z,4.7
2023-01-10T04:25:00.464Z,4.7
2023-01-10T04:30:00.487Z,4.7
2023-01-10T04:35:00.450Z,4.7
2023-01-10T04:40:00.460Z,4.7
2023-01-10T04:45:00.469Z,4.7
2023-01-10T04:50:00.457Z,4.7
2023-01-10T04:55:00.468Z,4.7
2023-01-10T05:00:00.463Z,4.7
2023-01-10T05:05:00.453Z,4.7
2023-01-10T05:10:00.464Z,4.7
2023-01-10T05:15:00.459Z,4.7
2023-01-10T05:20:00.468Z,4.7
2023-01-10T05:25:00.464Z,4.9
2023-01-10T05:30:00.469Z,4.8
2023-01-10T05:35:00.457Z,4.8
2023-01-10T05:40:00.470Z,4.7
2023-01-10T05:45:00.449Z,4.7
2023-01-10T05:50:00.462Z,4.7
2023-01-10T05:55:00.462Z,4.7
2023-01-10T06:00:00.519Z,4.7
2023-01-10T06:05:00.454Z,4.7
2023-01-10T06:10:00.489Z,4.7
2023-01-10T06:15:00.469Z,4.7
2023-01-10T06:20:00.466Z,4.7
2023-01-10T06:25:02.359Z,4.7
2023-01-10T06:30:00.451Z,4.7
2023-01-10T06:35:00.470Z,4.7
2023-01-10T06:40:00.454Z,4.8
2023-01-10T06:45:00.463Z,4.8
2023-01-10T06:50:00.478Z,4.6
2023-01-10T06:55:00.456Z,4.7
2023-01-10T07:00:00.479Z,4.7
2023-01-10T07:05:00.463Z,4.7
2023-01-10T07:10:00.481Z,4.7
2023-01-10T07:15:00.597Z,4.6
2023-01-10T07:20:00.475Z,4.8
2023-01-10T07:25:00.477Z,4.7
2023-01-10T07:30:00.486Z,4.5
2023-01-10T07:35:00.487Z,4.7
2023-01-10T07:40:00.450Z,4.7
2023-01-10T07:45:00.587Z,4.7
2023-01-10T07:50:00.481Z,4.5
2023-01-10T07:55:00.453Z,4.5
2023-01-10T08:00:00.531Z,4.5
2023-01-10T08:05:00.472Z,4.5
2023-01-10T08:10:00.472Z,4.5
2023-01-10T08:15:00.460Z,4.6
2023-01-10T08:20:00.460Z,4.6
2023-01-10T08:25:00.480Z,4.5
2023-01-10T08:30:00.483Z,4.5
2023-01-10T08:35:00.484Z,4.5
2023-01-10T08:40:00.473Z,4.3
2023-01-10T08:45:00.664Z,4.3
2023-01-10T08:50:00.482Z,4.4
2023-01-10T08:55:00.895Z,4.2
2023-01-10T09:00:00.536Z,4.4
2023-01-10T09:05:00.476Z,4.2
2023-01-10T09:10:00.500Z,4.2
2023-01-10T09:15:00.519Z,4.3
2023-01-10T09:20:00.604Z,4.3
2023-01-10T09:25:00.492Z,4.4
2023-01-10T09:30:00.528Z,4.2
2023-01-10T09:35:00.710Z,4.4
2023-01-10T09:40:00.492Z,4.4
2023-01-10T09:45:00.478Z,4.2
2023-01-10T09:50:01.350Z,4.4
2023-01-10T09:55:00.534Z,4.4
2023-01-10T10:00:00.488Z,4.4
2023-01-10T10:05:00.512Z,4.4
2023-01-10T10:10:00.487Z,4.4
2023-01-10T10:15:00.502Z,4.4
2023-01-10T10:20:00.475Z,4.2
2023-01-10T10:25:00.508Z,4.2
2023-01-10T10:30:00.515Z,4.2
2023-01-10T10:35:00.481Z,4.2
2023-01-10T10:40:00.475Z,4.2
2023-01-10T10:45:00.518Z,4.1
2023-01-10T10:50:00.504Z,4.1
2023-01-10T10:55:00.469Z,4.1
2023-01-10T11:00:00.525Z,4.1
2023-01-10T11:05:00.541Z,3.9
2023-01-10T11:10:00.534Z,3.9
2023-01-10T11:15:00.537Z,4.1
2023-01-10T11:20:00.505Z,4.1
2023-01-10T11:25:00.504Z,4.1
2023-01-10T11:30:00.532Z,3.9
2023-01-10T11:35:00.502Z,3.9
2023-01-10T11:40:00.505Z,3.9
2023-01-10T11:45:00.490Z,3.9
2023-01-10T11:50:00.458Z,3.9
2023-01-10T11:55:00.547Z,3.9
2023-01-10T12:00:00.477Z,4.0
2023-01-10T12:05:00.531Z,3.9
2023-01-10T12:10:00.511Z,3.9
2023-01-10T12:15:00.509Z,4.1
2023-01-10T12:20:00.485Z,3.9
2023-01-10T12:25:00.495Z,3.9
2023-01-10T12:30:00.620Z,3.9
2023-01-10T12:35:00.500Z,4.0
2023-01-10T12:40:00.478Z,4.0
2023-01-10T12:45:00.470Z,4.1
2023-01-10T12:50:00.474Z,4.1
2023-01-10T12:55:00.444Z,4.1
2023-01-10T13:00:00.483Z,4.1
2023-01-10T13:05:00.484Z,4.2
2023-01-10T13:10:00.472Z,4.2
2023-01-10T13:15:00.471Z,4.2
2023-01-10T13:20:00.472Z,4.2
2023-01-10T13:25:00.469Z,4.2
2023-01-10T13:30:00.516Z,4.2
2023-01-10T13:35:00.519Z,4.2
2023-01-10T13:40:00.510Z,4.2
2023-01-10T13:45:00.476Z,4.1
2023-01-10T13:50:00.519Z,4.2
2023-01-10T13:55:00.483Z,4.2
2023-01-10T14:00:00.469Z,4.2
2023-01-10T14:05:00.470Z,4.2
2023-01-10T14:10:00.489Z,4.2
2023-01-10T14:15:00.463Z,4.2
2023-01-10T14:20:00.482Z,4.2
2023-01-10T14:25:00.485Z,4.3
2023-01-10T14:30:00.536Z,4.3
2023-01-10T14:35:00.456Z,4.2
2023-01-10T14:40:00.473Z,4.2
2023-01-10T14:45:00.463Z,4.3
2023-01-10T14:50:00.489Z,4.3
2023-01-10T14:55:00.474Z,4.3
2023-01-10T15:00:00.480Z,4.4
2023-01-10T15:05:00.580Z,4.4
2023-01-10T15:10:00.467Z,4.4
2023-01-10T15:15:00.462Z,4.5
2023-01-10T15:20:00.448Z,4.6
2023-01-10T15:25:00.442Z,4.7
2023-01-10T15:30:00.480Z,4.9
2023-01-10T15:35:00.511Z,5.0
2023-01-10T15:40:00.553Z,4.8
2023-01-10T15:45:00.464Z,5.0
2023-01-10T15:50:00.548Z,4.9
2023-01-10T15:55:00.517Z,5.0
2023-01-10T16:00:00.717Z,5.0
2023-01-10T16:05:00.471Z,5.0
2023-01-10T16:10:00.456Z,5.0
2023-01-10T16:15:00.467Z,5.1
2023-01-10T16:20:00.467Z,5.1
2023-01-10T16:25:00.486Z,5.1
2023-01-10T16:30:00.490Z,5.1
2023-01-10T16:35:00.503Z,5.1
2023-01-10T16:40:00.499Z,5.1
2023-01-10T16:45:00.469Z,4.9
2023-01-10T16:50:00.499Z,4.9
2023-01-10T16:55:00.493Z,4.9
2023-01-10T17:00:00.670Z,4.9
2023-01-10T17:05:00.480Z,4.9
2023-01-10T17:10:00.506Z,4.9
2023-01-10T17:15:00.555Z,4.9
2023-01-10T17:20:00.468Z,4.9
2023-01-10T17:25:00.472Z,4.9
2023-01-10T17:30:00.646Z,5.0
2023-01-10T17:35:00.439Z,5.0
2023-01-10T17:40:00.475Z,5.0
2023-01-10T17:45:00.464Z,5.1
2023-01-10T17:50:00.494Z,5.1
2023-01-10T17:55:00.469Z,5.1
2023-01-10T18:00:00.456Z,5.1
2023-01-10T18:05:00.468Z,5.1
2023-01-10T18:10:00.483Z,5.1
2023-01-10T18:15:00.463Z,5.2
2023-01-10T18:20:00.475Z,5.2
2023-01-10T18:25:00.502Z,5.2
2023-01-10T18:30:00.487Z,5.2
2023-01-10T18:35:00.464Z,5.4
2023-01-10T18:40:00.475Z,5.3
2023-01-10T18:45:00.502Z,5.3
2023-01-10T18:50:00.472Z,5.3
2023-01-10T18:55:02.378Z,5.4
2023-01-10T19:00:00.441Z,5.6
2023-01-10T19:05:00.548Z,5.6
2023-01-10T19:10:00.464Z,5.7
2023-01-10T19:15:00.582Z,5.7
2023-01-10T19:20:00.486Z,5.8
2023-01-10T19:25:00.493Z,5.8
2023-01-10T19:30:00.498Z,5.9
2023-01-10T19:35:00.509Z,5.9
2023-01-10T19:40:00.485Z,6.0
2023-01-10T19:45:00.502Z,5.8
2023-01-10T19:50:00.475Z,5.9
2023-01-10T19:55:00.466Z,6.0
2023-01-10T20:00:00.462Z,6.2
2023-01-10T20:05:00.471Z,6.2
2023-01-10T20:10:00.457Z,6.2
2023-01-10T20:15:00.501Z,6.3
2023-01-10T20:20:00.468Z,6.4
2023-01-10T20:25:00.473Z,6.5
2023-01-10T20:30:00.467Z,6.5
2023-01-10T20:35:00.464Z,6.5
2023-01-10T20:40:00.457Z,6.7
2023-01-10T20:45:00.458Z,6.5
2023-01-10T20:50:00.476Z,6.6
2023-01-10T20:55:00.481Z,6.8
2023-01-10T21:00:00.465Z,6.8
2023-01-10T21:05:00.459Z,6.7
2023-01-10T21:10:00.472Z,6.8
2023-01-10T21:15:00.433Z,6.8
2023-01-10T21:20:00.461Z,6.8
2023-01-10T21:25:00.465Z,6.9
2023-01-10T21:30:00.479Z,7.0
2023-01-10T21:35:00.469Z,7.0
2023-01-10T21:40:00.496Z,7.0
2023-01-10T21:45:00.459Z,7.2
2023-01-10T21:50:00.473Z,7.0
2023-01-10T21:55:00.475Z,7.1
2023-01-10T22:00:00.476Z,7.2
2023-01-10T22:05:00.478Z,7.3
2023-01-10T22:10:00.451Z,7.3
2023-01-10T22:15:00.462Z,7.4
2023-01-10T22:20:00.468Z,7.4
2023-01-10T22:25:00.513Z,7.6
2023-01-10T22:30:00.479Z,7.6
2023-01-10T22:35:00.471Z,7.7
2023-01-10T22:40:00.475Z,7.7
2023-01-10T22:45:00.457Z,7.8
2023-01-10T22:50:00.486Z,7.9
2023-01-10T22:55:00.463Z,7.9
2023-01-10T23:00:00.436Z,7.9
2023-01-10T23:05:00.439Z,8.0
2023-01-10T23:10:00.461Z,8.0
2023-01-10T23:15:00.507Z,8.0
2023-01-10T23:20:00.472Z,8.1
2023-01-10T23:25:00.616Z,8.1
2023-01-10T23:30:00.429Z,8.1
2023-01-10T23:35:00.441Z,8.2
2023-01-10T23:40:00.455Z,8.2
2023-01-10T23:45:00.452Z,8.3
2023-01-10T23:50:00.457Z,8.3
2023-01-10T23:55:00.498Z,8.5
